sensor_id;sensor_type;location;lat;lon;timestamp;pressure;altitude;pressure_sealevel;temperature;humidity
14273;BME280;7220;49.450;11.052;2023-02-05T00:02:47;100243.47;;;0.14;94.40
14273;BME280;7220;49.450;11.052;2023-02-05T00:06:48;100250.50;;;0.17;94.31
14273;BME280;7220;49.450;11.052;2023-02-05T00:10:51;100249.53;;;0.11;94.30
14273;BME280;7220;49.450;11.052;2023-02-05T00:14:51;100240.97;;;0.19;93.33
14273;BME280;7220;49.450;11.052;2023-02-05T00:18:52;100242.75;;;0.20;93.08
14273;BME280;7220;49.450;11.052;2023-02-05T00:22:53;100251.22;;;0.09;93.07
14273;BME280;7220;49.450;11.052;2023-02-05T00:26:53;100242.06;;;-0.11;94.50
14273;BME280;7220;49.450;11.052;2023-02-05T00:30:54;100240.94;;;-0.23;96.08
14273;BME280;7220;49.450;11.052;2023-02-05T00:34:54;100231.97;;;-0.34;96.54
14273;BME280;7220;49.450;11.052;2023-02-05T00:38:54;100231.63;;;-0.11;96.03
14273;BME280;7220;49.450;11.052;2023-02-05T00:42:54;100223.19;;;0.02;94.31
14273;BME280;7220;49.450;11.052;2023-02-05T00:46:55;100221.41;;;-0.01;94.16
14273;BME280;7220;49.450;11.052;2023-02-05T00:50:55;100224.84;;;-0.03;94.44
14273;BME280;7220;49.450;11.052;2023-02-05T00:54:55;100224.84;;;-0.03;93.93
14273;BME280;7220;49.450;11.052;2023-02-05T00:58:56;100231.31;;;-0.24;95.48
14273;BME280;7220;49.450;11.052;2023-02-05T01:02:56;100236.56;;;-0.24;95.49
14273;BME280;7220;49.450;11.052;2023-02-05T01:06:57;100242.88;;;-0.52;97.67
14273;BME280;7220;49.450;11.052;2023-02-05T01:10:57;100252.63;;;-0.45;97.36
14273;BME280;7220;49.450;11.052;2023-02-05T01:14:59;100241.97;;;-0.53;96.89
14273;BME280;7220;49.450;11.052;2023-02-05T01:18:59;100234.19;;;-0.51;97.04
14273;BME280;7220;49.450;11.052;2023-02-05T01:23:00;100236.00;;;-0.49;97.01
14273;BME280;7220;49.450;11.052;2023-02-05T01:27:00;100237.81;;;-0.44;96.46
14273;BME280;7220;49.450;11.052;2023-02-05T01:31:00;100233.41;;;-0.47;96.72
14273;BME280;7220;49.450;11.052;2023-02-05T01:35:00;100236.97;;;-0.45;96.61
14273;BME280;7220;49.450;11.052;2023-02-05T01:39:01;100235.84;;;-0.55;96.81
14273;BME280;7220;49.450;11.052;2023-02-05T01:43:01;100223.63;;;-0.56;97.46
14273;BME280;7220;49.450;11.052;2023-02-05T01:47:01;100220.34;;;-0.49;96.58
14273;BME280;7220;49.450;11.052;2023-02-05T01:51:05;100213.16;;;-0.56;96.63
14273;BME280;7220;49.450;11.052;2023-02-05T01:55:07;100203.53;;;-0.58;96.42
14273;BME280;7220;49.450;11.052;2023-02-05T01:59:11;100206.41;;;-0.48;95.68
14273;BME280;7220;49.450;11.052;2023-02-05T02:03:13;100196.81;;;-0.49;95.39
14273;BME280;7220;49.450;11.052;2023-02-05T02:07:17;100192.66;;;-0.40;94.76
14273;BME280;7220;49.450;11.052;2023-02-05T02:11:20;100193.97;;;-0.20;92.77
14273;BME280;7220;49.450;11.052;2023-02-05T02:15:22;100195.53;;;-0.28;92.55
14273;BME280;7220;49.450;11.052;2023-02-05T02:19:38;100188.38;;;-0.37;92.48
14273;BME280;7220;49.450;11.052;2023-02-05T02:23:59;100183.22;;;-0.32;92.01
14273;BME280;7220;49.450;11.052;2023-02-05T02:36:40;100152.34;;;-0.52;91.83
14273;BME280;7220;49.450;11.052;2023-02-05T02:40:54;100160.25;;;-0.49;91.88
14273;BME280;7220;49.450;11.052;2023-02-05T02:45:00;100150.50;;;-0.56;91.61
14273;BME280;7220;49.450;11.052;2023-02-05T02:49:05;100163.06;;;-0.77;93.14
14273;BME280;7220;49.450;11.052;2023-02-05T02:53:11;100164.75;;;-0.80;93.50
14273;BME280;7220;49.450;11.052;2023-02-05T02:57:16;100158.91;;;-0.69;91.96
14273;BME280;7220;49.450;11.052;2023-02-05T03:01:20;100156.47;;;-0.98;93.71
14273;BME280;7220;49.450;11.052;2023-02-05T03:05:24;100153.66;;;-1.06;94.29
14273;BME280;7220;49.450;11.052;2023-02-05T03:09:37;100173.28;;;-1.22;95.64
14273;BME280;7220;49.450;11.052;2023-02-05T03:13:40;100174.88;;;-1.27;96.87
14273;BME280;7220;49.450;11.052;2023-02-05T03:17:41;100163.66;;;-1.24;96.55
14273;BME280;7220;49.450;11.052;2023-02-05T03:21:45;100164.00;;;-1.11;96.27
14273;BME280;7220;49.450;11.052;2023-02-05T03:25:47;100147.19;;;-1.22;96.86
14273;BME280;7220;49.450;11.052;2023-02-05T03:29:47;100146.53;;;-1.13;96.47
14273;BME280;7220;49.450;11.052;2023-02-05T03:33:59;100143.44;;;-0.98;95.93
14273;BME280;7220;49.450;11.052;2023-02-05T03:46:42;100135.63;;;-1.32;97.30
14273;BME280;7220;49.450;11.052;2023-02-05T03:55:10;100128.44;;;-1.42;97.59
14273;BME280;7220;49.450;11.052;2023-02-05T03:59:13;100113.59;;;-1.45;98.19
14273;BME280;7220;49.450;11.052;2023-02-05T04:03:15;100113.66;;;-1.41;98.33
14273;BME280;7220;49.450;11.052;2023-02-05T04:07:16;100120.91;;;-1.30;97.21
14273;BME280;7220;49.450;11.052;2023-02-05T04:11:16;100117.50;;;-1.27;96.53
14273;BME280;7220;49.450;11.052;2023-02-05T04:15:16;100111.38;;;-1.29;97.41
14273;BME280;7220;49.450;11.052;2023-02-05T04:19:17;100103.47;;;-1.32;98.00
14273;BME280;7220;49.450;11.052;2023-02-05T04:23:17;100110.22;;;-1.39;98.30
14273;BME280;7220;49.450;11.052;2023-02-05T04:27:17;100116.56;;;-1.64;99.48
14273;BME280;7220;49.450;11.052;2023-02-05T04:31:18;100115.97;;;-1.54;99.93
14273;BME280;7220;49.450;11.052;2023-02-05T04:35:18;100105.66;;;-1.49;98.55
14273;BME280;7220;49.450;11.052;2023-02-05T04:39:18;100121.66;;;-1.67;98.58
14273;BME280;7220;49.450;11.052;2023-02-05T04:43:19;100125.69;;;-1.47;97.77
14273;BME280;7220;49.450;11.052;2023-02-05T04:47:19;100134.59;;;-1.38;97.13
14273;BME280;7220;49.450;11.052;2023-02-05T04:51:19;100147.91;;;-1.29;95.74
14273;BME280;7220;49.450;11.052;2023-02-05T04:55:19;100138.75;;;-1.47;96.20
14273;BME280;7220;49.450;11.052;2023-02-05T04:59:20;100131.72;;;-1.49;96.78
14273;BME280;7220;49.450;11.052;2023-02-05T05:03:20;100136.97;;;-1.48;96.71
14273;BME280;7220;49.450;11.052;2023-02-05T05:07:20;100136.00;;;-1.51;95.75
14273;BME280;7220;49.450;11.052;2023-02-05T05:11:21;100135.78;;;-1.59;96.42
14273;BME280;7220;49.450;11.052;2023-02-05T05:15:21;100136.88;;;-1.51;95.67
14273;BME280;7220;49.450;11.052;2023-02-05T05:19:21;100143.13;;;-1.46;95.17
14273;BME280;7220;49.450;11.052;2023-02-05T05:23:22;100133.28;;;-1.56;95.46
14273;BME280;7220;49.450;11.052;2023-02-05T05:27:22;100132.41;;;-1.56;95.10
14273;BME280;7220;49.450;11.052;2023-02-05T05:31:23;100125.97;;;-1.69;95.56
14273;BME280;7220;49.450;11.052;2023-02-05T05:35:24;100130.56;;;-1.61;95.07
14273;BME280;7220;49.450;11.052;2023-02-05T05:39:24;100141.69;;;-1.66;94.74
14273;BME280;7220;49.450;11.052;2023-02-05T05:43:43;100138.25;;;-1.65;94.51
14273;BME280;7220;49.450;11.052;2023-02-05T05:47:46;100128.50;;;-1.72;95.03
14273;BME280;7220;49.450;11.052;2023-02-05T05:51:46;100114.63;;;-1.71;94.95
14273;BME280;7220;49.450;11.052;2023-02-05T05:55:47;100111.19;;;-1.70;95.91
14273;BME280;7220;49.450;11.052;2023-02-05T05:59:47;100124.06;;;-1.77;96.23
14273;BME280;7220;49.450;11.052;2023-02-05T06:03:48;100123.13;;;-1.79;95.69
14273;BME280;7220;49.450;11.052;2023-02-05T06:07:49;100128.66;;;-1.66;94.68
14273;BME280;7220;49.450;11.052;2023-02-05T06:11:50;100125.22;;;-1.65;94.82
14273;BME280;7220;49.450;11.052;2023-02-05T06:15:50;100125.16;;;-1.68;94.47
14273;BME280;7220;49.450;11.052;2023-02-05T06:19:51;100123.06;;;-1.80;95.42
14273;BME280;7220;49.450;11.052;2023-02-05T06:23:51;100122.41;;;-1.73;95.23
14273;BME280;7220;49.450;11.052;2023-02-05T06:27:51;100117.97;;;-1.76;95.19
14273;BME280;7220;49.450;11.052;2023-02-05T06:31:51;100123.28;;;-1.72;94.54
14273;BME280;7220;49.450;11.052;2023-02-05T06:35:52;100105.63;;;-1.83;95.08
14273;BME280;7220;49.450;11.052;2023-02-05T06:39:52;100122.28;;;-1.78;96.00
14273;BME280;7220;49.450;11.052;2023-02-05T06:43:52;100103.78;;;-1.87;95.86
14273;BME280;7220;49.450;11.052;2023-02-05T06:47:53;100099.66;;;-1.79;95.92
14273;BME280;7220;49.450;11.052;2023-02-05T06:51:55;100111.03;;;-1.77;95.11
14273;BME280;7220;49.450;11.052;2023-02-05T06:55:59;100112.16;;;-1.65;94.38
14273;BME280;7220;49.450;11.052;2023-02-05T06:59:59;100108.00;;;-1.59;93.93
14273;BME280;7220;49.450;11.052;2023-02-05T07:04:00;100122.06;;;-1.52;93.34
14273;BME280;7220;49.450;11.052;2023-02-05T07:08:00;100124.94;;;-1.43;92.43
14273;BME280;7220;49.450;11.052;2023-02-05T07:12:03;100122.75;;;-1.25;91.27
14273;BME280;7220;49.450;11.052;2023-02-05T07:16:03;100123.91;;;-1.14;90.42
14273;BME280;7220;49.450;11.052;2023-02-05T07:20:04;100119.81;;;-1.04;89.93
14273;BME280;7220;49.450;11.052;2023-02-05T07:24:05;100126.63;;;-1.09;90.04
14273;BME280;7220;49.450;11.052;2023-02-05T07:28:07;100114.59;;;-1.04;89.56
14273;BME280;7220;49.450;11.052;2023-02-05T07:32:07;100102.03;;;-0.83;88.91
14273;BME280;7220;49.450;11.052;2023-02-05T07:36:09;100103.16;;;-0.71;88.28
14273;BME280;7220;49.450;11.052;2023-02-05T07:40:11;100096.91;;;-0.78;88.93
14273;BME280;7220;49.450;11.052;2023-02-05T07:44:11;100093.81;;;-0.61;88.25
14273;BME280;7220;49.450;11.052;2023-02-05T07:48:12;100085.56;;;-0.40;87.12
14273;BME280;7220;49.450;11.052;2023-02-05T07:52:12;100071.88;;;-0.28;85.95
14273;BME280;7220;49.450;11.052;2023-02-05T07:56:13;100070.91;;;-0.32;84.88
14273;BME280;7220;49.450;11.052;2023-02-05T08:00:14;100065.19;;;-0.14;83.95
14273;BME280;7220;49.450;11.052;2023-02-05T08:04:14;100070.75;;;0.05;82.29
14273;BME280;7220;49.450;11.052;2023-02-05T08:08:15;100061.00;;;-0.04;82.64
14273;BME280;7220;49.450;11.052;2023-02-05T08:12:15;100057.94;;;0.19;81.64
14273;BME280;7220;49.450;11.052;2023-02-05T08:16:16;100052.72;;;0.19;82.35
14273;BME280;7220;49.450;11.052;2023-02-05T08:20:16;100046.44;;;0.10;82.40
14273;BME280;7220;49.450;11.052;2023-02-05T08:24:17;100033.75;;;0.30;81.19
14273;BME280;7220;49.450;11.052;2023-02-05T08:28:17;100025.31;;;0.49;80.11
14273;BME280;7220;49.450;11.052;2023-02-05T08:32:17;100026.00;;;0.37;80.48
14273;BME280;7220;49.450;11.052;2023-02-05T08:36:18;100023.47;;;0.41;79.86
14273;BME280;7220;49.450;11.052;2023-02-05T08:40:19;100032.06;;;0.34;79.86
14273;BME280;7220;49.450;11.052;2023-02-05T08:44:19;100038.53;;;0.55;79.22
14273;BME280;7220;49.450;11.052;2023-02-05T08:48:19;100042.16;;;0.65;79.13
14273;BME280;7220;49.450;11.052;2023-02-05T08:52:20;100035.31;;;0.74;78.11
14273;BME280;7220;49.450;11.052;2023-02-05T08:56:20;100028.47;;;0.83;78.16
14273;BME280;7220;49.450;11.052;2023-02-05T09:00:20;100027.06;;;1.05;77.40
14273;BME280;7220;49.450;11.052;2023-02-05T09:04:21;100023.09;;;1.33;76.41
14273;BME280;7220;49.450;11.052;2023-02-05T09:08:23;100013.66;;;1.48;75.35
14273;BME280;7220;49.450;11.052;2023-02-05T09:12:23;100003.97;;;1.42;75.11
14273;BME280;7220;49.450;11.052;2023-02-05T09:16:25;99984.84;;;1.48;75.33
14273;BME280;7220;49.450;11.052;2023-02-05T09:20:25;99984.09;;;1.60;75.12
14273;BME280;7220;49.450;11.052;2023-02-05T09:24:26;99978.91;;;1.64;74.82
14273;BME280;7220;49.450;11.052;2023-02-05T09:28:26;99983.13;;;1.53;75.09
14273;BME280;7220;49.450;11.052;2023-02-05T09:32:26;99970.03;;;1.53;75.45
14273;BME280;7220;49.450;11.052;2023-02-05T09:36:27;99963.16;;;1.61;75.75
14273;BME280;7220;49.450;11.052;2023-02-05T09:40:41;99975.44;;;1.68;75.25
14273;BME280;7220;49.450;11.052;2023-02-05T09:44:59;99965.09;;;1.79;75.10
14273;BME280;7220;49.450;11.052;2023-02-05T09:49:16;99947.72;;;1.89;74.93
14273;BME280;7220;49.450;11.052;2023-02-05T09:53:18;99943.34;;;1.88;75.93
14273;BME280;7220;49.450;11.052;2023-02-05T09:57:32;99945.19;;;1.98;74.52
14273;BME280;7220;49.450;11.052;2023-02-05T10:01:42;99943.38;;;1.94;73.93
14273;BME280;7220;49.450;11.052;2023-02-05T10:10:15;99945.03;;;1.83;74.76
14273;BME280;7220;49.450;11.052;2023-02-05T10:18:52;99944.22;;;1.90;74.77
14273;BME280;7220;49.450;11.052;2023-02-05T10:23:07;99944.28;;;1.95;74.20
14273;BME280;7220;49.450;11.052;2023-02-05T10:27:21;99922.53;;;2.07;74.81
14273;BME280;7220;49.450;11.052;2023-02-05T10:31:40;99922.63;;;2.19;74.31
14273;BME280;7220;49.450;11.052;2023-02-05T10:35:55;99909.66;;;2.38;73.93
14273;BME280;7220;49.450;11.052;2023-02-05T10:39:56;99903.47;;;2.32;73.52
14273;BME280;7220;49.450;11.052;2023-02-05T10:44:13;99902.72;;;2.47;74.09
14273;BME280;7220;49.450;11.052;2023-02-05T10:48:36;99880.06;;;2.66;73.21
14273;BME280;7220;49.450;11.052;2023-02-05T10:52:38;99881.94;;;2.86;72.06
14273;BME280;7220;49.450;11.052;2023-02-05T10:56:38;99881.13;;;3.03;72.06
14273;BME280;7220;49.450;11.052;2023-02-05T11:00:40;99873.25;;;3.04;71.67
14273;BME280;7220;49.450;11.052;2023-02-05T11:04:54;99869.75;;;3.05;71.61
14273;BME280;7220;49.450;11.052;2023-02-05T11:08:56;99877.69;;;3.19;71.59
14273;BME280;7220;49.450;11.052;2023-02-05T11:13:02;99868.97;;;3.26;70.11
14273;BME280;7220;49.450;11.052;2023-02-05T11:17:19;99844.44;;;3.30;70.80
14273;BME280;7220;49.450;11.052;2023-02-05T11:21:20;99838.31;;;3.38;69.77
14273;BME280;7220;49.450;11.052;2023-02-05T11:25:22;99837.41;;;3.29;69.85
14273;BME280;7220;49.450;11.052;2023-02-05T11:29:26;99849.69;;;3.30;70.39
14273;BME280;7220;49.450;11.052;2023-02-05T11:33:28;99852.31;;;3.37;70.28
14273;BME280;7220;49.450;11.052;2023-02-05T11:37:28;99861.97;;;3.48;69.90
14273;BME280;7220;49.450;11.052;2023-02-05T11:41:32;99862.88;;;3.43;70.20
14273;BME280;7220;49.450;11.052;2023-02-05T11:45:50;99868.97;;;3.33;70.37
14273;BME280;7220;49.450;11.052;2023-02-05T11:49:51;99858.47;;;3.42;69.78
14273;BME280;7220;49.450;11.052;2023-02-05T11:53:54;99858.47;;;3.33;70.00
14273;BME280;7220;49.450;11.052;2023-02-05T11:58:00;99847.97;;;3.36;70.39
14273;BME280;7220;49.450;11.052;2023-02-05T12:06:34;99832.19;;;3.45;70.88
14273;BME280;7220;49.450;11.052;2023-02-05T12:15:28;99837.47;;;3.54;70.13
14273;BME280;7220;49.450;11.052;2023-02-05T12:19:43;99819.09;;;3.62;69.65
14273;BME280;7220;49.450;11.052;2023-02-05T12:24:07;99808.53;;;3.81;69.26
14273;BME280;7220;49.450;11.052;2023-02-05T12:28:29;99800.66;;;4.01;68.82
14273;BME280;7220;49.450;11.052;2023-02-05T12:32:47;99786.63;;;4.08;68.33
14273;BME280;7220;49.450;11.052;2023-02-05T12:37:17;99785.72;;;4.21;67.34
14273;BME280;7220;49.450;11.052;2023-02-05T12:41:44;99766.22;;;4.78;65.05
14273;BME280;7220;49.450;11.052;2023-02-05T12:50:15;99755.13;;;5.60;61.65
14273;BME280;7220;49.450;11.052;2023-02-05T12:54:34;99748.59;;;6.03;60.73
14273;BME280;7220;49.450;11.052;2023-02-05T12:58:49;99744.41;;;6.63;58.03
14273;BME280;7220;49.450;11.052;2023-02-05T13:08:05;99748.91;;;6.53;58.32
14273;BME280;7220;49.450;11.052;2023-02-05T13:12:10;99749.31;;;6.18;58.12
14273;BME280;7220;49.450;11.052;2023-02-05T13:16:15;99753.13;;;5.85;59.05
14273;BME280;7220;49.450;11.052;2023-02-05T13:20:21;99760.38;;;5.63;59.88
14273;BME280;7220;49.450;11.052;2023-02-05T13:24:55;99766.72;;;5.37;60.86
14273;BME280;7220;49.450;11.052;2023-02-05T13:29:16;99762.44;;;5.22;61.41
14273;BME280;7220;49.450;11.052;2023-02-05T13:33:17;99754.66;;;5.04;62.05
14273;BME280;7220;49.450;11.052;2023-02-05T13:37:32;99761.72;;;4.94;63.38
14273;BME280;7220;49.450;11.052;2023-02-05T13:58:48;99768.94;;;4.53;65.30
14273;BME280;7220;49.450;11.052;2023-02-05T14:02:53;99776.88;;;4.44;66.17
14273;BME280;7220;49.450;11.052;2023-02-05T14:11:01;99767.25;;;4.35;66.63
14273;BME280;7220;49.450;11.052;2023-02-05T14:27:49;99755.88;;;4.27;67.22
14273;BME280;7220;49.450;11.052;2023-02-05T14:31:49;99756.78;;;4.07;68.10
14273;BME280;7220;49.450;11.052;2023-02-05T14:35:56;99776.13;;;3.92;68.75
14273;BME280;7220;49.450;11.052;2023-02-05T14:39:58;99775.25;;;3.92;67.84
14273;BME280;7220;49.450;11.052;2023-02-05T14:44:02;99784.88;;;3.88;68.53
14273;BME280;7220;49.450;11.052;2023-02-05T14:48:04;99795.41;;;3.91;68.47
14273;BME280;7220;49.450;11.052;2023-02-05T14:52:33;99780.50;;;3.90;68.45
14273;BME280;7220;49.450;11.052;2023-02-05T14:56:43;99795.41;;;3.85;69.86
14273;BME280;7220;49.450;11.052;2023-02-05T15:00:45;99801.56;;;3.79;70.14
14273;BME280;7220;49.450;11.052;2023-02-05T15:04:47;99800.69;;;3.82;70.04
14273;BME280;7220;49.450;11.052;2023-02-05T15:09:00;99805.06;;;3.78;71.51
14273;BME280;7220;49.450;11.052;2023-02-05T15:13:10;99800.66;;;3.88;71.34
14273;BME280;7220;49.450;11.052;2023-02-05T15:21:33;99815.56;;;3.80;73.28
14273;BME280;7220;49.450;11.052;2023-02-05T15:25:44;99820.84;;;3.75;72.75
14273;BME280;7220;49.450;11.052;2023-02-05T15:29:47;99821.72;;;3.60;73.30
14273;BME280;7220;49.450;11.052;2023-02-05T15:34:05;99833.97;;;3.66;73.13
14273;BME280;7220;49.450;11.052;2023-02-05T15:42:31;99837.50;;;3.67;72.13
14273;BME280;7220;49.450;11.052;2023-02-05T15:46:33;99832.22;;;3.67;72.50
14273;BME280;7220;49.450;11.052;2023-02-05T15:50:36;99835.72;;;3.61;71.71
14273;BME280;7220;49.450;11.052;2023-02-05T15:54:41;99836.59;;;3.49;72.74
14273;BME280;7220;49.450;11.052;2023-02-05T15:58:47;99833.97;;;3.49;73.16
14273;BME280;7220;49.450;11.052;2023-02-05T16:02:56;99832.22;;;3.54;72.77
14273;BME280;7220;49.450;11.052;2023-02-05T16:06:57;99841.84;;;3.55;72.86
14273;BME280;7220;49.450;11.052;2023-02-05T16:10:58;99836.59;;;3.54;72.68
14273;BME280;7220;49.450;11.052;2023-02-05T16:15:05;99847.97;;;3.48;72.74
14273;BME280;7220;49.450;11.052;2023-02-05T16:19:12;99853.22;;;3.48;73.10
14273;BME280;7220;49.450;11.052;2023-02-05T16:23:23;99861.97;;;3.35;74.41
14273;BME280;7220;49.450;11.052;2023-02-05T16:27:34;99871.56;;;3.25;75.24
14273;BME280;7220;49.450;11.052;2023-02-05T16:31:38;99873.34;;;3.30;75.40
14273;BME280;7220;49.450;11.052;2023-02-05T16:35:43;99868.06;;;3.24;74.84
14273;BME280;7220;49.450;11.052;2023-02-05T16:39:50;99871.56;;;3.22;74.58
14273;BME280;7220;49.450;11.052;2023-02-05T16:43:57;99865.44;;;3.24;76.52
14273;BME280;7220;49.450;11.052;2023-02-05T16:48:21;99869.78;;;3.18;75.67
14273;BME280;7220;49.450;11.052;2023-02-05T16:56:34;99862.78;;;3.13;75.36
14273;BME280;7220;49.450;11.052;2023-02-05T17:00:36;99872.41;;;3.16;74.72
14273;BME280;7220;49.450;11.052;2023-02-05T17:04:37;99893.47;;;3.21;74.73
14273;BME280;7220;49.450;11.052;2023-02-05T17:08:38;99914.38;;;3.02;75.66
14273;BME280;7220;49.450;11.052;2023-02-05T17:12:45;99919.66;;;3.04;75.91
14273;BME280;7220;49.450;11.052;2023-02-05T17:16:53;99932.81;;;3.07;75.14
14273;BME280;7220;49.450;11.052;2023-02-05T17:21:30;99928.41;;;3.06;75.08
14273;BME280;7220;49.450;11.052;2023-02-05T17:25:53;99926.72;;;3.11;75.70
14273;BME280;7220;49.450;11.052;2023-02-05T17:29:56;99912.66;;;3.06;76.07
14273;BME280;7220;49.450;11.052;2023-02-05T17:33:57;99909.03;;;2.82;77.26
14273;BME280;7220;49.450;11.052;2023-02-05T17:37:58;99919.59;;;2.93;76.29
14273;BME280;7220;49.450;11.052;2023-02-05T17:41:58;99911.75;;;3.00;76.15
14273;BME280;7220;49.450;11.052;2023-02-05T17:46:13;99927.56;;;3.08;75.30
14273;BME280;7220;49.450;11.052;2023-02-05T17:50:14;99914.41;;;3.04;75.72
14273;BME280;7220;49.450;11.052;2023-02-05T17:54:18;99909.97;;;2.89;77.18
14273;BME280;7220;49.450;11.052;2023-02-05T17:58:18;99923.13;;;2.93;76.83
14273;BME280;7220;49.450;11.052;2023-02-05T18:02:18;99925.75;;;2.93;76.82
14273;BME280;7220;49.450;11.052;2023-02-05T18:06:19;99928.41;;;2.96;76.23
14273;BME280;7220;49.450;11.052;2023-02-05T18:10:22;99927.50;;;2.97;75.71
14273;BME280;7220;49.450;11.052;2023-02-05T18:14:23;99925.75;;;2.95;76.11
14273;BME280;7220;49.450;11.052;2023-02-05T18:18:24;99920.44;;;2.86;76.65
14273;BME280;7220;49.450;11.052;2023-02-05T18:22:24;99928.38;;;2.93;77.12
14273;BME280;7220;49.450;11.052;2023-02-05T18:26:25;99932.69;;;2.87;77.37
14273;BME280;7220;49.450;11.052;2023-02-05T18:30:26;99945.94;;;3.04;77.43
14273;BME280;7220;49.450;11.052;2023-02-05T18:34:26;99955.56;;;3.09;77.79
14273;BME280;7220;49.450;11.052;2023-02-05T18:38:29;99954.66;;;2.99;79.56
14273;BME280;7220;49.450;11.052;2023-02-05T18:42:29;99963.41;;;2.98;79.88
14273;BME280;7220;49.450;11.052;2023-02-05T18:46:29;99968.59;;;2.86;80.98
14273;BME280;7220;49.450;11.052;2023-02-05T18:50:30;99973.84;;;2.86;81.67
14273;BME280;7220;49.450;11.052;2023-02-05T18:54:30;99972.97;;;2.90;81.55
14273;BME280;7220;49.450;11.052;2023-02-05T18:58:30;99977.41;;;2.94;82.46
14273;BME280;7220;49.450;11.052;2023-02-05T19:02:31;99980.78;;;2.78;82.47
14273;BME280;7220;49.450;11.052;2023-02-05T19:06:32;99979.09;;;2.86;83.59
14273;BME280;7220;49.450;11.052;2023-02-05T19:10:35;99987.88;;;2.88;83.12
14273;BME280;7220;49.450;11.052;2023-02-05T19:14:35;99987.75;;;2.70;85.23
14273;BME280;7220;49.450;11.052;2023-02-05T19:18:36;100000.81;;;2.63;85.33
14273;BME280;7220;49.450;11.052;2023-02-05T19:22:36;99996.44;;;2.64;85.29
14273;BME280;7220;49.450;11.052;2023-02-05T19:26:38;100000.88;;;2.71;85.31
14273;BME280;7220;49.450;11.052;2023-02-05T19:30:40;100003.34;;;2.48;86.16
14273;BME280;7220;49.450;11.052;2023-02-05T19:34:41;99994.59;;;2.52;86.06
14273;BME280;7220;49.450;11.052;2023-02-05T19:38:42;100005.97;;;2.51;86.06
14273;BME280;7220;49.450;11.052;2023-02-05T19:42:42;100017.41;;;2.59;86.19
14273;BME280;7220;49.450;11.052;2023-02-05T19:46:43;100032.34;;;2.65;86.11
14273;BME280;7220;49.450;11.052;2023-02-05T19:50:44;100039.25;;;2.57;87.28
14273;BME280;7220;49.450;11.052;2023-02-05T19:54:44;100025.31;;;2.64;85.63
14273;BME280;7220;49.450;11.052;2023-02-05T19:58:46;100018.38;;;2.71;85.85
14273;BME280;7220;49.450;11.052;2023-02-05T20:02:51;100022.69;;;2.64;86.02
14273;BME280;7220;49.450;11.052;2023-02-05T20:06:57;100014.81;;;2.65;85.25
14273;BME280;7220;49.450;11.052;2023-02-05T20:10:58;100029.66;;;2.60;85.76
14273;BME280;7220;49.450;11.052;2023-02-05T20:14:59;100030.47;;;2.55;85.70
14273;BME280;7220;49.450;11.052;2023-02-05T20:19:00;100031.34;;;2.50;84.87
14273;BME280;7220;49.450;11.052;2023-02-05T20:23:00;100055.78;;;2.43;85.33
14273;BME280;7220;49.450;11.052;2023-02-05T20:27:00;100047.81;;;2.35;85.54
14273;BME280;7220;49.450;11.052;2023-02-05T20:31:04;100062.66;;;2.33;85.27
14273;BME280;7220;49.450;11.052;2023-02-05T20:35:23;100047.75;;;2.28;85.92
14273;BME280;7220;49.450;11.052;2023-02-05T20:39:25;100047.75;;;2.28;85.68
14273;BME280;7220;49.450;11.052;2023-02-05T20:43:27;100047.50;;;2.04;85.66
14273;BME280;7220;49.450;11.052;2023-02-05T20:47:28;100058.00;;;2.06;86.04
14273;BME280;7220;49.450;11.052;2023-02-05T20:51:28;100071.97;;;2.03;86.37
14273;BME280;7220;49.450;11.052;2023-02-05T20:55:29;100075.50;;;2.05;85.73
14273;BME280;7220;49.450;11.052;2023-02-05T20:59:31;100062.19;;;1.87;86.82
14273;BME280;7220;49.450;11.052;2023-02-05T21:03:32;100084.84;;;1.82;86.60
14273;BME280;7220;49.450;11.052;2023-02-05T21:07:33;100084.66;;;1.68;86.80
14273;BME280;7220;49.450;11.052;2023-02-05T21:11:35;100085.53;;;1.68;86.82
14273;BME280;7220;49.450;11.052;2023-02-05T21:15:36;100097.88;;;1.76;86.75
14273;BME280;7220;49.450;11.052;2023-02-05T21:19:37;100108.91;;;1.53;88.23
14273;BME280;7220;49.450;11.052;2023-02-05T21:23:37;100122.91;;;1.52;88.68
14273;BME280;7220;49.450;11.052;2023-02-05T21:27:38;100120.81;;;1.29;89.52
14273;BME280;7220;49.450;11.052;2023-02-05T21:31:45;100127.91;;;1.36;89.73
14273;BME280;7220;49.450;11.052;2023-02-05T21:35:46;100126.03;;;1.29;90.07
14273;BME280;7220;49.450;11.052;2023-02-05T21:39:46;100133.88;;;1.28;90.21
14273;BME280;7220;49.450;11.052;2023-02-05T21:43:48;100137.44;;;1.31;90.00
14273;BME280;7220;49.450;11.052;2023-02-05T21:47:48;100132.09;;;1.23;90.12
14273;BME280;7220;49.450;11.052;2023-02-05T21:51:49;100131.97;;;1.17;91.28
14273;BME280;7220;49.450;11.052;2023-02-05T21:55:52;100146.88;;;1.20;90.17
14273;BME280;7220;49.450;11.052;2023-02-05T21:59:53;100142.44;;;1.17;90.45
14273;BME280;7220;49.450;11.052;2023-02-05T22:03:56;100149.50;;;1.20;90.88
14273;BME280;7220;49.450;11.052;2023-02-05T22:07:57;100151.28;;;1.22;90.67
14273;BME280;7220;49.450;11.052;2023-02-05T22:11:57;100143.97;;;1.01;91.18
14273;BME280;7220;49.450;11.052;2023-02-05T22:16:11;100167.28;;;0.86;91.97
14273;BME280;7220;49.450;11.052;2023-02-05T22:20:12;100158.00;;;1.06;91.68
14273;BME280;7220;49.450;11.052;2023-02-05T22:24:14;100166.00;;;1.16;90.83
14273;BME280;7220;49.450;11.052;2023-02-05T22:28:15;100170.16;;;1.03;91.48
14273;BME280;7220;49.450;11.052;2023-02-05T22:32:15;100175.19;;;0.90;91.93
14273;BME280;7220;49.450;11.052;2023-02-05T22:36:18;100188.41;;;0.98;91.17
14273;BME280;7220;49.450;11.052;2023-02-05T22:40:19;100197.16;;;0.99;90.83
14273;BME280;7220;49.450;11.052;2023-02-05T22:44:19;100198.00;;;0.98;90.80
14273;BME280;7220;49.450;11.052;2023-02-05T22:48:19;100197.94;;;0.94;90.67
14273;BME280;7220;49.450;11.052;2023-02-05T22:52:20;100215.22;;;0.85;91.25
14273;BME280;7220;49.450;11.052;2023-02-05T22:56:21;100219.66;;;0.89;91.36
14273;BME280;7220;49.450;11.052;2023-02-05T23:00:21;100228.81;;;0.65;92.16
14273;BME280;7220;49.450;11.052;2023-02-05T23:04:21;100240.09;;;0.61;93.09
14273;BME280;7220;49.450;11.052;2023-02-05T23:08:22;100247.84;;;0.56;92.70